createdAt,value
2023-02-09T00:02:00.999Z,50.10
2023-02-09T00:04:29.333Z,49.40
2023-02-09T00:06:56.999Z,48.50
2023-02-09T00:09:24.912Z,47.90
2023-02-09T00:12:10.670Z,47.00
2023-02-09T00:14:37.653Z,46.30
2023-02-09T00:17:09.662Z,50.60
2023-02-09T00:19:36.575Z,44.30
2023-02-09T00:22:03.783Z,49.00
2023-02-09T00:24:31.802Z,49.20
2023-02-09T00:26:58.698Z,57.20
2023-02-09T00:29:27.176Z,52.40
2023-02-09T00:31:54.409Z,51.90
2023-02-09T00:34:21.500Z,49.90
2023-02-09T00:36:51.641Z,44.50
2023-02-09T00:39:18.524Z,44.70
2023-02-09T00:42:04.068Z,43.00
2023-02-09T00:44:32.185Z,42.20
2023-02-09T00:47:01.473Z,44.70
2023-02-09T00:49:29.717Z,46.70
2023-02-09T00:54:26.039Z,47.20
2023-02-09T00:56:53.433Z,51.30
2023-02-09T00:59:20.433Z,43.50
2023-02-09T01:01:47.888Z,46.80
2023-02-09T01:04:15.061Z,51.00
2023-02-09T01:06:42.147Z,56.80
2023-02-09T01:09:09.174Z,53.90
2023-02-09T01:11:36.175Z,71.10
2023-02-09T01:14:04.523Z,65.20
2023-02-09T01:16:31.943Z,68.10
2023-02-09T01:19:00.581Z,61.60
2023-02-09T01:21:29.519Z,65.60
2023-02-09T01:23:56.904Z,63.10
2023-02-09T01:26:24.012Z,57.70
2023-02-09T01:28:53.095Z,61.50
2023-02-09T01:31:21.703Z,62.80
2023-02-09T01:33:51.169Z,61.50
2023-02-09T01:36:18.900Z,57.50
2023-02-09T01:38:45.989Z,55.90
2023-02-09T01:41:13.049Z,56.80
2023-02-09T01:43:51.528Z,55.90
2023-02-09T01:46:20.763Z,54.80
2023-02-09T01:48:49.132Z,61.50
2023-02-09T01:51:19.601Z,63.90
2023-02-09T01:53:46.567Z,64.50
2023-02-09T01:56:18.150Z,64.30
2023-02-09T01:58:46.104Z,67.80
2023-02-09T02:01:13.318Z,66.80
2023-02-09T02:03:41.015Z,66.30
2023-02-09T02:06:12.692Z,72.30
2023-02-09T02:08:43.761Z,89.10
2023-02-09T02:11:11.332Z,88.00
2023-02-09T02:13:39.039Z,95.70
2023-02-09T02:16:33.384Z,79.70
2023-02-09T02:19:19.351Z,71.30
2023-02-09T02:22:01.814Z,65.80
2023-02-09T02:24:41.720Z,66.20
2023-02-09T02:27:10.436Z,60.70
2023-02-09T02:29:58.980Z,66.80
2023-02-09T02:32:47.239Z,59.40
2023-02-09T02:35:20.266Z,62.40
2023-02-09T02:38:14.287Z,63.30
2023-02-09T02:40:58.284Z,64.90
2023-02-09T02:43:46.652Z,61.00
2023-02-09T02:46:18.806Z,65.60
2023-02-09T02:48:56.996Z,57.90
2023-02-09T02:51:34.755Z,60.00
2023-02-09T02:54:04.803Z,66.40
2023-02-09T02:56:36.033Z,64.30
2023-02-09T02:59:04.968Z,67.90
2023-02-09T03:01:34.678Z,64.40
2023-02-09T03:04:01.751Z,65.90
2023-02-09T03:06:31.411Z,70.40
2023-02-09T03:08:58.639Z,71.20
2023-02-09T03:11:38.257Z,66.20
2023-02-09T03:14:27.465Z,65.10
2023-02-09T03:19:46.856Z,57.20
2023-02-09T03:22:28.136Z,59.80
2023-02-09T03:25:16.409Z,71.30
2023-02-09T03:27:55.340Z,65.70
2023-02-09T03:30:22.995Z,101.10
2023-02-09T03:32:50.452Z,132.60
2023-02-09T03:35:17.671Z,107.80
2023-02-09T03:37:44.685Z,84.10
2023-02-09T03:40:11.922Z,70.10
2023-02-09T03:42:39.091Z,63.50
2023-02-09T03:45:07.462Z,66.70
2023-02-09T03:47:34.455Z,55.30
2023-02-09T03:50:01.356Z,52.70
2023-02-09T03:52:30.375Z,53.40
2023-02-09T03:54:57.414Z,53.20
2023-02-09T03:57:24.666Z,58.20
2023-02-09T03:59:51.696Z,54.50
2023-02-09T04:02:18.965Z,49.10
2023-02-09T04:04:46.242Z,49.80
2023-02-09T04:07:13.589Z,49.10
2023-02-09T04:09:41.831Z,54.20
2023-02-09T04:12:08.808Z,56.50
2023-02-09T04:14:36.516Z,56.40
2023-02-09T04:17:03.443Z,59.70
2023-02-09T04:19:30.362Z,55.50
2023-02-09T04:22:00.537Z,59.70
2023-02-09T04:24:28.141Z,51.30
2023-02-09T04:26:55.317Z,58.70
2023-02-09T04:29:22.308Z,52.90
2023-02-09T04:31:49.307Z,58.20
2023-02-09T04:34:16.347Z,62.30
2023-02-09T04:36:43.739Z,58.20
2023-02-09T04:39:10.554Z,62.70
2023-02-09T04:41:37.501Z,57.30
2023-02-09T04:44:04.720Z,62.40
2023-02-09T04:46:32.237Z,65.80
2023-02-09T04:49:00.391Z,65.00
2023-02-09T04:51:27.370Z,61.50
2023-02-09T04:53:54.460Z,57.60
2023-02-09T04:56:21.511Z,56.30
2023-02-09T04:59:07.270Z,65.20
2023-02-09T05:01:34.291Z,54.10
2023-02-09T05:04:01.739Z,61.10
2023-02-09T05:06:30.602Z,52.90
2023-02-09T05:08:57.938Z,52.10
2023-02-09T05:11:25.670Z,63.10
2023-02-09T05:13:52.832Z,59.00
2023-02-09T05:16:21.401Z,58.70
2023-02-09T05:18:49.977Z,61.30
2023-02-09T05:21:16.856Z,64.00
2023-02-09T05:23:44.228Z,63.40
2023-02-09T05:26:12.139Z,63.90
2023-02-09T05:28:39.387Z,56.50
2023-02-09T05:31:06.343Z,65.10
2023-02-09T05:33:33.927Z,58.40
2023-02-09T05:36:00.787Z,60.80
2023-02-09T05:38:28.041Z,61.80
2023-02-09T05:40:55.499Z,70.90
2023-02-09T05:43:22.371Z,63.80
2023-02-09T05:45:49.283Z,73.00
2023-02-09T05:48:16.401Z,70.10
2023-02-09T05:50:43.867Z,80.80
2023-02-09T05:53:15.130Z,74.20
2023-02-09T05:58:10.670Z,68.30
2023-02-09T06:00:37.868Z,67.00
2023-02-09T06:03:04.895Z,82.40
2023-02-09T06:05:32.034Z,74.50
2023-02-09T06:07:59.177Z,78.10
2023-02-09T06:10:26.401Z,87.80
2023-02-09T06:12:53.804Z,89.00
2023-02-09T06:15:20.792Z,90.40
2023-02-09T06:17:48.465Z,90.40
2023-02-09T06:20:15.598Z,85.90
2023-02-09T06:22:42.631Z,86.10
2023-02-09T06:25:10.020Z,77.00
2023-02-09T06:27:36.966Z,78.60
2023-02-09T06:30:05.036Z,74.80
2023-02-09T06:32:33.156Z,75.20
2023-02-09T06:35:00.438Z,79.20
2023-02-09T06:37:27.394Z,81.80
2023-02-09T06:39:54.281Z,78.30
2023-02-09T06:42:22.043Z,80.70
2023-02-09T06:44:49.288Z,72.50
2023-02-09T06:47:16.132Z,73.30
2023-02-09T06:49:43.412Z,76.60
2023-02-09T06:52:10.548Z,67.00
2023-02-09T06:54:38.029Z,70.80
2023-02-09T06:57:05.512Z,65.20
2023-02-09T06:59:32.448Z,61.10
2023-02-09T07:01:59.437Z,66.60
2023-02-09T07:04:26.768Z,71.80
2023-02-09T07:06:53.847Z,71.70
2023-02-09T07:09:22.206Z,67.30
2023-02-09T07:11:54.751Z,64.90
2023-02-09T07:14:22.485Z,71.80
2023-02-09T07:16:49.798Z,76.20
2023-02-09T07:19:16.676Z,69.70
2023-02-09T07:21:43.564Z,76.70
2023-02-09T07:24:10.728Z,70.40
2023-02-09T07:26:38.388Z,77.00
2023-02-09T07:29:05.641Z,73.50
2023-02-09T07:31:32.668Z,79.70
2023-02-09T07:33:59.683Z,76.40
2023-02-09T07:36:26.884Z,80.60
2023-02-09T07:38:57.312Z,82.10
2023-02-09T07:41:28.035Z,74.80
2023-02-09T07:43:55.521Z,93.50
2023-02-09T07:46:23.277Z,90.50
2023-02-09T07:48:50.852Z,93.90
2023-02-09T07:51:19.443Z,100.10
2023-02-09T07:53:46.983Z,92.10
2023-02-09T07:56:14.107Z,91.10
2023-02-09T07:58:41.363Z,87.00
2023-02-09T08:01:10.752Z,87.60
2023-02-09T08:03:38.347Z,77.80
2023-02-09T08:06:19.448Z,108.20
2023-02-09T08:08:49.502Z,95.70
2023-02-09T08:11:31.829Z,90.90
2023-02-09T08:13:58.971Z,81.80
2023-02-09T08:16:27.302Z,77.80
2023-02-09T08:18:58.204Z,78.30
2023-02-09T08:21:25.613Z,72.20
2023-02-09T08:23:53.583Z,75.60
2023-02-09T08:26:20.978Z,71.90
2023-02-09T08:28:48.150Z,66.40
2023-02-09T08:31:17.252Z,68.50
2023-02-09T08:33:47.726Z,65.20
2023-02-09T08:36:15.198Z,63.70
2023-02-09T08:38:42.486Z,61.20
2023-02-09T08:41:12.055Z,68.50
2023-02-09T08:46:10.726Z,57.50
2023-02-09T08:48:43.372Z,66.70
2023-02-09T08:51:11.522Z,62.80
2023-02-09T08:53:38.648Z,58.30
2023-02-09T08:56:06.204Z,50.90
2023-02-09T08:58:34.296Z,56.50
2023-02-09T09:01:01.803Z,56.20
2023-02-09T09:03:30.816Z,45.50
2023-02-09T09:08:26.113Z,37.90
2023-02-09T09:10:53.449Z,44.80
2023-02-09T09:13:20.646Z,30.00
2023-02-09T09:15:48.595Z,26.90
2023-02-09T09:18:15.895Z,33.70
2023-02-09T09:20:43.159Z,22.00
2023-02-09T09:23:11.113Z,31.60
2023-02-09T09:25:39.035Z,25.00
2023-02-09T09:28:06.483Z,19.80
2023-02-09T09:30:34.224Z,29.10
2023-02-09T09:33:01.715Z,22.70
2023-02-09T09:35:29.252Z,26.70
2023-02-09T09:37:58.023Z,20.60
2023-02-09T09:40:29.614Z,23.30
2023-02-09T09:42:59.006Z,23.80
2023-02-09T09:45:27.175Z,22.60
2023-02-09T09:47:55.776Z,23.90
2023-02-09T09:50:26.272Z,23.30
2023-02-09T09:53:01.580Z,24.40
2023-02-09T09:55:29.983Z,24.40
2023-02-09T09:58:02.897Z,23.80
2023-02-09T10:00:39.256Z,34.40
2023-02-09T10:03:14.721Z,26.10
2023-02-09T10:05:41.901Z,27.20
2023-02-09T10:08:23.297Z,27.40
2023-02-09T10:11:03.769Z,21.60
2023-02-09T10:13:40.743Z,25.80
2023-02-09T10:16:20.375Z,24.60
2023-02-09T10:18:58.011Z,20.80
2023-02-09T10:21:29.905Z,28.00
2023-02-09T10:23:59.431Z,23.40
2023-02-09T10:26:27.571Z,25.70
2023-02-09T10:29:24.089Z,24.10
2023-02-09T10:31:57.290Z,24.10
2023-02-09T10:34:46.367Z,25.40
2023-02-09T10:37:34.477Z,26.80
2023-02-09T10:40:12.347Z,29.90
2023-02-09T10:42:42.830Z,28.90
2023-02-09T10:45:15.784Z,29.50
2023-02-09T10:47:42.582Z,27.10
2023-02-09T10:50:17.060Z,30.30
2023-02-09T10:53:36.634Z,25.80
2023-02-09T10:56:06.426Z,27.90
2023-02-09T10:58:36.612Z,32.60
2023-02-09T11:01:17.463Z,31.20
2023-02-09T11:04:02.095Z,29.10
2023-02-09T11:06:35.212Z,29.70
2023-02-09T11:09:16.663Z,31.20
2023-02-09T11:11:43.684Z,27.30
2023-02-09T11:14:15.782Z,29.40
2023-02-09T11:16:52.476Z,29.30
2023-02-09T11:19:21.865Z,31.40
2023-02-09T11:22:21.265Z,33.30
2023-02-09T11:24:54.118Z,27.80
2023-02-09T11:27:26.967Z,33.50
2023-02-09T11:30:18.751Z,34.10
2023-02-09T11:32:55.359Z,30.20
2023-02-09T11:35:25.213Z,28.00
2023-02-09T11:37:58.201Z,26.90
2023-02-09T11:40:25.193Z,27.90
2023-02-09T11:42:52.315Z,29.50
2023-02-09T11:45:24.500Z,30.10
2023-02-09T11:47:58.032Z,32.20
2023-02-09T11:50:27.988Z,32.90
2023-02-09T11:53:18.122Z,39.90
2023-02-09T11:56:05.509Z,29.30
2023-02-09T11:58:51.268Z,34.50
2023-02-09T12:01:33.509Z,31.20
2023-02-09T12:04:19.101Z,33.20
2023-02-09T12:06:50.489Z,31.30
2023-02-09T12:09:54.803Z,32.50
2023-02-09T12:12:23.798Z,28.60
2023-02-09T12:15:13.727Z,26.60
2023-02-09T12:18:06.636Z,26.70
2023-02-09T12:20:36.584Z,26.80
2023-02-09T12:23:25.517Z,32.90
2023-02-09T12:26:00.710Z,35.10
2023-02-09T12:28:31.898Z,33.70
2023-02-09T12:31:06.650Z,25.60
2023-02-09T12:33:36.976Z,31.90
2023-02-09T12:36:09.940Z,30.20
2023-02-09T12:38:51.577Z,23.40
2023-02-09T12:41:22.960Z,22.00
2023-02-09T12:43:50.330Z,25.90
2023-02-09T12:46:29.321Z,24.20
2023-02-09T12:49:13.150Z,25.30
2023-02-09T12:51:55.507Z,23.60
2023-02-09T12:54:44.399Z,23.00
2023-02-09T12:57:16.271Z,21.50
2023-02-09T12:59:53.131Z,26.60
2023-02-09T13:02:26.764Z,21.80
2023-02-09T13:05:02.119Z,23.10
2023-02-09T13:07:32.340Z,27.80
2023-02-09T13:10:05.898Z,17.70
2023-02-09T13:12:38.811Z,26.60
2023-02-09T13:15:12.510Z,21.60
2023-02-09T13:17:59.830Z,20.20
2023-02-09T13:20:33.437Z,24.80
2023-02-09T13:23:27.044Z,19.80
2023-02-09T13:26:01.766Z,29.90
2023-02-09T13:28:29.318Z,33.60
2023-02-09T13:30:56.472Z,24.70
2023-02-09T13:33:43.751Z,25.70
2023-02-09T13:36:46.762Z,22.10
2023-02-09T13:39:24.296Z,26.90
2023-02-09T13:41:53.291Z,23.90
2023-02-09T13:44:25.220Z,27.00
2023-02-09T13:46:57.113Z,22.90
2023-02-09T13:49:25.692Z,27.00
2023-02-09T13:52:12.057Z,26.30
2023-02-09T13:54:39.642Z,20.30
2023-02-09T13:57:33.466Z,39.30
2023-02-09T14:00:16.050Z,31.60
2023-02-09T14:02:58.863Z,32.00
2023-02-09T14:05:40.111Z,24.80
2023-02-09T14:08:07.749Z,28.90
2023-02-09T14:10:35.165Z,24.80
2023-02-09T14:13:36.650Z,27.40
2023-02-09T14:16:06.720Z,28.00
2023-02-09T14:18:55.876Z,29.00
2023-02-09T14:21:36.918Z,24.50
2023-02-09T14:24:13.298Z,35.90
2023-02-09T14:27:04.234Z,33.60
2023-02-09T14:29:32.436Z,33.00
2023-02-09T14:32:00.792Z,23.60
2023-02-09T14:34:35.762Z,28.70
2023-02-09T14:37:12.974Z,31.90
2023-02-09T14:39:52.011Z,27.60
2023-02-09T14:42:19.109Z,32.90
2023-02-09T14:44:56.989Z,28.30
2023-02-09T14:47:28.381Z,33.50
2023-02-09T14:49:57.164Z,31.70
2023-02-09T14:52:28.157Z,28.60
2023-02-09T14:55:05.904Z,28.40
2023-02-09T14:57:35.614Z,35.60
2023-02-09T15:00:23.645Z,29.70
2023-02-09T15:02:51.894Z,30.80
2023-02-09T15:05:19.847Z,35.00
2023-02-09T15:07:55.546Z,27.70
2023-02-09T15:10:27.721Z,34.70
2023-02-09T15:12:58.280Z,32.70
2023-02-09T15:15:25.615Z,33.70
2023-02-09T15:17:54.551Z,34.60
2023-02-09T15:20:24.746Z,30.70
2023-02-09T15:22:53.041Z,36.20
2023-02-09T15:25:20.958Z,35.90
2023-02-09T15:27:52.930Z,31.40
2023-02-09T15:30:31.757Z,31.70
2023-02-09T15:32:59.615Z,31.00
2023-02-09T15:35:27.460Z,31.70
2023-02-09T15:37:56.076Z,28.70
2023-02-09T15:40:45.016Z,29.10
2023-02-09T15:43:36.193Z,25.80
2023-02-09T15:46:23.572Z,28.70
2023-02-09T15:48:50.508Z,29.60
2023-02-09T15:51:17.508Z,33.70
2023-02-09T15:53:45.827Z,33.70
2023-02-09T15:56:12.982Z,29.50
2023-02-09T15:58:44.203Z,31.50
2023-02-09T16:01:13.523Z,32.50
2023-02-09T16:06:12.034Z,40.00
2023-02-09T16:08:38.926Z,32.10
2023-02-09T16:11:08.988Z,28.90
2023-02-09T16:13:50.619Z,56.40
2023-02-09T16:16:17.966Z,37.60
2023-02-09T16:18:46.094Z,30.30
2023-02-09T16:21:27.665Z,34.40
2023-02-09T16:23:57.612Z,31.30
2023-02-09T16:26:24.805Z,38.90
2023-02-09T16:28:51.909Z,37.30
2023-02-09T16:31:19.007Z,43.30
2023-02-09T16:33:45.967Z,43.50
2023-02-09T16:36:15.710Z,47.20
2023-02-09T16:38:42.672Z,46.50
2023-02-09T16:41:33.946Z,49.20
2023-02-09T16:44:01.714Z,45.50
2023-02-09T16:46:29.226Z,51.90
2023-02-09T16:49:00.665Z,50.30
2023-02-09T16:51:27.821Z,58.90
2023-02-09T16:53:56.136Z,57.70
2023-02-09T16:56:25.349Z,62.10
2023-02-09T16:58:52.269Z,50.20
2023-02-09T17:01:20.644Z,47.30
2023-02-09T17:03:49.427Z,41.30
2023-02-09T17:06:19.459Z,44.50
2023-02-09T17:08:46.810Z,42.60
2023-02-09T17:11:22.849Z,36.60
2023-02-09T17:13:50.549Z,44.90
2023-02-09T17:16:30.097Z,35.40
2023-02-09T17:19:00.016Z,54.50
2023-02-09T17:21:28.700Z,29.80
2023-02-09T17:23:57.081Z,29.70
2023-02-09T17:26:26.139Z,35.70
2023-02-09T17:28:53.580Z,33.60
2023-02-09T17:31:23.276Z,35.70
2023-02-09T17:33:55.155Z,33.50
2023-02-09T17:36:28.488Z,36.40
2023-02-09T17:38:57.503Z,33.40
2023-02-09T17:41:24.797Z,31.90
2023-02-09T17:43:51.743Z,36.60
2023-02-09T17:46:19.130Z,32.80
2023-02-09T17:48:46.855Z,34.50
2023-02-09T17:51:28.594Z,42.50
2023-02-09T17:53:55.653Z,40.90
2023-02-09T17:56:22.906Z,47.20
2023-02-09T17:58:50.130Z,40.50
2023-02-09T18:01:21.701Z,48.70
2023-02-09T18:03:48.857Z,44.90
2023-02-09T18:06:16.901Z,43.70
2023-02-09T18:08:44.190Z,50.40
2023-02-09T18:11:15.113Z,48.00
2023-02-09T18:13:42.343Z,45.30
2023-02-09T18:16:09.203Z,52.10
2023-02-09T18:18:38.004Z,48.40
2023-02-09T18:21:05.515Z,45.70
2023-02-09T18:23:32.812Z,46.30
2023-02-09T18:25:59.841Z,48.30
2023-02-09T18:28:27.075Z,40.20
2023-02-09T18:30:54.631Z,42.60
2023-02-09T18:33:21.925Z,52.70
2023-02-09T18:35:49.472Z,54.50
2023-02-09T18:38:17.119Z,46.10
2023-02-09T18:40:44.995Z,47.20
2023-02-09T18:43:14.028Z,43.90
2023-02-09T18:48:07.664Z,41.30
2023-02-09T18:50:34.993Z,46.30
2023-02-09T18:53:02.832Z,37.90
2023-02-09T18:55:31.917Z,44.00
2023-02-09T19:00:26.882Z,37.60
2023-02-09T19:02:57.607Z,34.80
2023-02-09T19:05:26.280Z,37.80
2023-02-09T19:07:55.358Z,43.10
2023-02-09T19:10:22.990Z,59.10
2023-02-09T19:12:50.754Z,58.70
2023-02-09T19:15:19.232Z,65.50
2023-02-09T19:17:46.415Z,71.10
2023-02-09T19:20:19.094Z,69.30
2023-02-09T19:22:47.656Z,74.80
2023-02-09T19:25:14.793Z,78.10
2023-02-09T19:27:42.005Z,75.10
2023-02-09T19:30:13.172Z,75.60
2023-02-09T19:32:41.249Z,81.90
2023-02-09T19:35:09.019Z,86.40
2023-02-09T19:37:36.867Z,93.20
2023-02-09T19:40:16.843Z,98.10
2023-02-09T19:42:44.272Z,96.90
2023-02-09T19:45:11.863Z,86.80
2023-02-09T19:47:39.307Z,88.00
2023-02-09T19:50:06.358Z,84.60
2023-02-09T19:52:37.292Z,79.90
2023-02-09T19:55:04.655Z,75.50
2023-02-09T19:57:31.711Z,70.70
2023-02-09T19:59:59.472Z,69.10
2023-02-09T20:02:26.771Z,71.80
2023-02-09T20:04:53.957Z,67.10
2023-02-09T20:07:21.945Z,67.80
2023-02-09T20:09:50.217Z,63.60
2023-02-09T20:12:18.648Z,63.10
2023-02-09T20:14:46.060Z,66.50
2023-02-09T20:17:14.855Z,67.80
2023-02-09T20:19:41.962Z,60.50
2023-02-09T20:22:11.125Z,70.40
2023-02-09T20:24:38.714Z,67.50
2023-02-09T20:27:07.626Z,66.70
2023-02-09T20:29:34.832Z,63.90
2023-02-09T20:32:02.496Z,64.70
2023-02-09T20:34:29.578Z,65.00
2023-02-09T20:42:03.452Z,62.20
2023-02-09T20:44:50.665Z,59.90
2023-02-09T20:47:18.325Z,68.10
2023-02-09T20:49:45.679Z,66.00
2023-02-09T20:52:12.587Z,77.80
2023-02-09T20:54:40.018Z,63.60
2023-02-09T20:57:07.343Z,59.10
2023-02-09T20:59:34.364Z,68.80
2023-02-09T21:02:01.412Z,64.00
2023-02-09T21:04:29.569Z,56.30
2023-02-09T21:06:57.122Z,51.50
2023-02-09T21:09:25.986Z,54.80
2023-02-09T21:11:53.723Z,50.50
2023-02-09T21:14:27.859Z,48.40
2023-02-09T21:17:08.378Z,49.20
2023-02-09T21:19:36.517Z,44.90
2023-02-09T21:22:03.418Z,44.10
2023-02-09T21:24:32.276Z,37.30
2023-02-09T21:27:02.456Z,44.30
2023-02-09T21:29:29.889Z,40.60
2023-02-09T21:32:02.416Z,36.40
2023-02-09T21:34:30.013Z,42.70
2023-02-09T21:36:57.042Z,40.90
2023-02-09T21:39:24.104Z,43.30
2023-02-09T21:42:10.147Z,39.00
2023-02-09T21:47:07.429Z,40.70
2023-02-09T21:49:34.578Z,41.90
2023-02-09T21:52:01.478Z,44.80
2023-02-09T21:54:33.218Z,45.80
2023-02-09T21:57:00.995Z,40.30
2023-02-09T21:59:28.819Z,41.30
2023-02-09T22:01:55.919Z,41.80
2023-02-09T22:04:22.912Z,38.70
2023-02-09T22:06:50.226Z,48.20
2023-02-09T22:09:19.584Z,48.50
2023-02-09T22:11:46.640Z,42.30
2023-02-09T22:14:13.971Z,48.60
2023-02-09T22:16:41.856Z,45.60
2023-02-09T22:19:09.181Z,42.40
2023-02-09T22:21:36.098Z,47.60
2023-02-09T22:24:03.185Z,47.50
2023-02-09T22:26:30.155Z,52.00
2023-02-09T22:28:57.243Z,43.70
2023-02-09T22:31:24.632Z,41.30
2023-02-09T22:33:53.352Z,49.40
2023-02-09T22:36:20.333Z,43.60
2023-02-09T22:38:47.334Z,49.00
2023-02-09T22:41:22.285Z,43.90
2023-02-09T22:44:00.212Z,40.10
2023-02-09T22:46:32.634Z,34.20
2023-02-09T22:49:01.917Z,39.80
2023-02-09T22:51:29.830Z,46.10
2023-02-09T22:53:57.833Z,43.80
2023-02-09T22:56:25.824Z,40.60
2023-02-09T22:58:54.317Z,44.50
2023-02-09T23:01:21.806Z,42.60
2023-02-09T23:03:50.276Z,38.00
2023-02-09T23:06:23.518Z,44.10
2023-02-09T23:08:52.888Z,46.10
2023-02-09T23:14:08.455Z,35.70
2023-02-09T23:16:36.770Z,36.80
2023-02-09T23:19:07.549Z,38.70
2023-02-09T23:21:39.417Z,41.20
2023-02-09T23:24:11.503Z,47.00
2023-02-09T23:26:50.849Z,37.20
2023-02-09T23:29:22.433Z,42.80
2023-02-09T23:31:50.572Z,41.60
2023-02-09T23:34:21.872Z,43.60
2023-02-09T23:36:50.913Z,42.40
2023-02-09T23:39:26.455Z,46.50
2023-02-09T23:42:01.136Z,45.00
2023-02-09T23:44:36.121Z,40.40
2023-02-09T23:50:09.110Z,46.80
2023-02-09T23:52:36.683Z,42.80
2023-02-09T23:55:04.028Z,45.80
2023-02-09T23:57:32.066Z,51.10
2023-02-09T23:59:59.160Z,47.10
